WetterOnline ( https://www.wetteronline.de )

Wetter aktuell Schwedt

Aktuelles Wetter: Angermünde (55m)

6-stündlich | Neueste Meldungen
Ortszeit Temperatur Wetter
Fr, 30.07. 14:00 23.2° C leicht bewölkt
Fr, 30.07. 8:00 16.1° C wolkenlos
Fr, 30.07. 2:00 15.6° C leicht bewölkt
Do, 29.07. 20:00 22.0° C leicht bewölkt
Do, 29.07. 14:00 24.3° C wolkig
Do, 29.07. 8:00 19.0° C wolkenlos
Do, 29.07. 2:00 17.0° C bewölkt
Mi, 28.07. 20:00 23.2° C wolkenlos
Ortszeit Temperatur Wetter
Fr, 30.07. 19:10 24.3° C wolkenlos
Fr, 30.07. 19:00 24.3° C fast wolkenlos
Fr, 30.07. 18:50 24.3° C fast wolkenlos
Fr, 30.07. 18:40 24.2° C leicht bewölkt
Fr, 30.07. 18:30 24.4° C wolkig
Fr, 30.07. 18:20 24.4° C wolkig
Fr, 30.07. 18:00 24.0° C leicht bewölkt
Fr, 30.07. 17:30 24.2° C wolkig
Fr, 30.07. 17:00 23.8° C leicht bewölkt
Fr, 30.07. 16:30 23.8° C wolkig
Fr, 30.07. 16:00 23.8° C wolkig
Ortszeit Relative Feuchte Sichtweite
Fr, 30.07. 14:00 42% 45 km
Fr, 30.07. 8:00 68% 45 km
Fr, 30.07. 2:00 63% 50 km
Do, 29.07. 20:00 36% 60 km
Do, 29.07. 14:00 44% >70 km
Do, 29.07. 8:00 81% 45 km
Do, 29.07. 2:00 84% 35 km
Mi, 28.07. 20:00 57% >70 km
Ortszeit Relative Feuchte Sichtweite
Fr, 30.07. 19:10 47% -
Fr, 30.07. 19:00 46% 50 km
Fr, 30.07. 18:50 46% -
Fr, 30.07. 18:40 45% -
Fr, 30.07. 18:30 44% 40 km
Fr, 30.07. 18:20 44% -
Fr, 30.07. 18:00 46% 60 km
Fr, 30.07. 17:30 45% 55 km
Fr, 30.07. 17:00 45% 45 km
Fr, 30.07. 16:30 44% 60 km
Fr, 30.07. 16:00 42% 35 km
Ortszeit Niederschlagsmenge Niederschlagsart
Fr, 30.07. 14:00 0.0 l/m2 in 6 Std. -
Fr, 30.07. 8:00 0.0 l/m2 in 12 Std. -
Fr, 30.07. 2:00 0.0 l/m2 in 6 Std. -
Do, 29.07. 20:00 0.1 l/m2 in 12 Std. -
Do, 29.07. 14:00 0.1 l/m2 in 6 Std. Regen
Do, 29.07. 8:00 0.0 l/m2 in 12 Std. -
Do, 29.07. 2:00 0.0 l/m2 in 6 Std. -
Mi, 28.07. 20:00 0.1 l/m2 in 12 Std. -
Ortszeit Niederschlagsmenge Niederschlagsart
Fr, 30.07. 19:10 keine Meldung -
Fr, 30.07. 19:00 0.0 l/m2 in 1 Std. -
Fr, 30.07. 18:50 keine Meldung -
Fr, 30.07. 18:40 keine Meldung -
Fr, 30.07. 18:30 0.0 l/m2 in 1 Std. -
Fr, 30.07. 18:20 keine Meldung -
Fr, 30.07. 18:00 0.0 l/m2 in 1 Std. -
Fr, 30.07. 17:30 0.0 l/m2 in 1 Std. -
Fr, 30.07. 17:00 0.0 l/m2 in 1 Std. -
Fr, 30.07. 16:30 0.0 l/m2 in 1 Std. -
Fr, 30.07. 16:00 0.0 l/m2 in 1 Std. -
Ortszeit Stärke Spitze Richtung
km/h Bft. km/h Grad Sektor
Fr, 30.07. 14:00 22 4 47 250° W
Fr, 30.07. 8:00 11 2 20 220° SW
Fr, 30.07. 2:00 13 3 31 250° W
Do, 29.07. 20:00 28 4 46 250° W
Do, 29.07. 14:00 24 4 44 240° SW
Do, 29.07. 8:00 9 2 28 230° SW
Do, 29.07. 2:00 11 2 25 190° S
Mi, 28.07. 20:00 13 3 31 200° S
Ortszeit Stärke Spitze Richtung
km/h Bft. km/h Grad Sektor
Fr, 30.07. 19:10 11 2 - 230° SW
Fr, 30.07. 19:00 11 2 28 220° SW
Fr, 30.07. 18:50 11 2 - 220° SW
Fr, 30.07. 18:40 13 3 - 240° SW
Fr, 30.07. 18:30 14 3 29 240° SW
Fr, 30.07. 18:20 14 3 - 240° SW
Fr, 30.07. 18:00 14 3 32 240° SW
Fr, 30.07. 17:30 19 3 33 250° W
Fr, 30.07. 17:00 20 4 35 240° SW
Fr, 30.07. 16:30 18 3 36 240° SW
Fr, 30.07. 16:00 25 4 40 250° W
Ortszeit Untergrenze Bedeckung Gattung
total tief tief mittel hoch
Fr, 30.07. 14:00 7200 m 4/8 0/8 - - -
Fr, 30.07. 8:00 - 0/8 0/8 - - -
Fr, 30.07. 2:00 6300 m 2/8 2/8 - - -
Do, 29.07. 20:00 2100 m 4/8 4/8 - - -
Do, 29.07. 14:00 1500 m 5/8 5/8 - - -
Do, 29.07. 8:00 - 0/8 0/8 - - -
Do, 29.07. 2:00 2400 m 7/8 7/8 - - -
Mi, 28.07. 20:00 - 0/8 0/8 - - -
Ortszeit Bedeckungsgrad in Achtel und Wolkenuntergrenze
Fr, 30.07. 19:10 keine Wolken
Fr, 30.07. 19:00 1(9000m)
Fr, 30.07. 18:50 1(9000m)
Fr, 30.07. 18:40 1(8700m) 3(9000m)
Fr, 30.07. 18:30 4(8400m) 8(9000m) 8(9000m)
Fr, 30.07. 18:20 4(8400m) 8(9000m) 8(9000m)
Fr, 30.07. 18:00 1(7500m) 5(8100m) 8(9000m)
Fr, 30.07. 17:30 8(7500m) 8(9000m)
Fr, 30.07. 17:00 8(7500m) 8(9000m)
Fr, 30.07. 16:30 3(6900m) 7(7800m) 8(9000m)
Fr, 30.07. 16:00 8(6600m) 8(8400m) 8(9000m)
Ortszeit Luftdruck NN (hPa) Tendenz (hPa in 3 Std.)
Fr, 30.07. 14:00 1008 - 1,1
Fr, 30.07. 8:00 1010 - 0,1
Fr, 30.07. 2:00 1010 - 0,1
Do, 29.07. 20:00 1009 + 0,1
Do, 29.07. 14:00 1009 - 0,2
Do, 29.07. 8:00 1010 + 0,2
Do, 29.07. 2:00 1010 - 0,1
Mi, 28.07. 20:00 1010 - 0,8
Ortszeit Luftdruck NN (hPa) Tendenz (hPa in 3 Std.)
Fr, 30.07. 19:10 1006 keine Meldung
Fr, 30.07. 19:00 1006 - 1,2
Fr, 30.07. 18:50 1006 keine Meldung
Fr, 30.07. 18:40 1006 keine Meldung
Fr, 30.07. 18:30 1006 - 1,1
Fr, 30.07. 18:20 1006 keine Meldung
Fr, 30.07. 18:00 1007 - 0,9
Fr, 30.07. 17:30 1007 - 1,1
Fr, 30.07. 17:00 1007 - 1,1
Fr, 30.07. 16:30 1007 - 1,1
Fr, 30.07. 16:00 1008 - 1,0
Ortszeit Schneehöhe (cm)
Fr, 30.07. 14:00 0
Fr, 30.07. 8:00 0
Fr, 30.07. 2:00 0
Do, 29.07. 20:00 0
Do, 29.07. 14:00 0
Do, 29.07. 8:00 0
Do, 29.07. 2:00 0
Mi, 28.07. 20:00 0
Ortszeit Schneehöhe (cm)
Fr, 30.07. 19:10 -
Fr, 30.07. 19:00 -
Fr, 30.07. 18:50 -
Fr, 30.07. 18:40 -
Fr, 30.07. 18:30 -
Fr, 30.07. 18:20 -
Fr, 30.07. 18:00 0
Fr, 30.07. 17:30 0
Fr, 30.07. 17:00 0
Fr, 30.07. 16:30 0
Fr, 30.07. 16:00 0
Link zu dieser Seite / Seite empfehlen

Das Wetter in ...